sensor_id;sensor_type;location;lat;lon;timestamp;P1;durP1;ratioP1;P2;durP2;ratioP2
52124;SDS011;38119;52.710;6.398;2023-05-20T00:00:30;14.20;;;5.25;;
52124;SDS011;38119;52.710;6.398;2023-05-20T00:02:56;10.48;;;5.50;;
52124;SDS011;38119;52.710;6.398;2023-05-20T00:05:23;13.63;;;5.35;;
52124;SDS011;38119;52.710;6.398;2023-05-20T00:07:49;10.95;;;5.03;;
52124;SDS011;38119;52.710;6.398;2023-05-20T00:10:15;15.10;;;5.13;;
52124;SDS011;38119;52.710;6.398;2023-05-20T00:12:40;9.60;;;5.22;;
52124;SDS011;38119;52.710;6.398;2023-05-20T00:15:06;8.60;;;5.10;;
52124;SDS011;38119;52.710;6.398;2023-05-20T00:17:32;11.20;;;5.47;;
52124;SDS011;38119;52.710;6.398;2023-05-20T00:19:58;10.48;;;5.20;;
52124;SDS011;38119;52.710;6.398;2023-05-20T00:22:24;12.57;;;5.68;;
52124;SDS011;38119;52.710;6.398;2023-05-20T00:24:50;8.82;;;5.35;;
52124;SDS011;38119;52.710;6.398;2023-05-20T00:27:15;10.38;;;4.82;;
52124;SDS011;38119;52.710;6.398;2023-05-20T00:29:41;11.73;;;5.30;;
52124;SDS011;38119;52.710;6.398;2023-05-20T00:32:07;10.43;;;5.22;;
52124;SDS011;38119;52.710;6.398;2023-05-20T00:34:32;11.93;;;5.95;;
52124;SDS011;38119;52.710;6.398;2023-05-20T00:36:58;11.90;;;5.80;;
52124;SDS011;38119;52.710;6.398;2023-05-20T00:39:23;10.60;;;5.45;;
52124;SDS011;38119;52.710;6.398;2023-05-20T00:41:49;11.80;;;5.03;;
52124;SDS011;38119;52.710;6.398;2023-05-20T00:44:15;11.32;;;5.35;;
52124;SDS011;38119;52.710;6.398;2023-05-20T00:46:42;10.93;;;5.63;;
52124;SDS011;38119;52.710;6.398;2023-05-20T00:49:09;15.90;;;5.38;;
52124;SDS011;38119;52.710;6.398;2023-05-20T00:51:34;11.93;;;5.22;;
52124;SDS011;38119;52.710;6.398;2023-05-20T00:54:00;13.02;;;5.10;;
52124;SDS011;38119;52.710;6.398;2023-05-20T00:56:27;8.93;;;5.22;;
52124;SDS011;38119;52.710;6.398;2023-05-20T00:58:53;13.43;;;5.82;;
52124;SDS011;38119;52.710;6.398;2023-05-20T01:01:20;11.60;;;5.20;;
52124;SDS011;38119;52.710;6.398;2023-05-20T01:03:45;10.27;;;5.43;;
52124;SDS011;38119;52.710;6.398;2023-05-20T01:06:12;13.10;;;5.50;;
52124;SDS011;38119;52.710;6.398;2023-05-20T01:08:38;10.05;;;5.30;;
52124;SDS011;38119;52.710;6.398;2023-05-20T01:11:13;11.48;;;5.35;;
52124;SDS011;38119;52.710;6.398;2023-05-20T01:13:46;10.07;;;5.30;;
52124;SDS011;38119;52.710;6.398;2023-05-20T01:16:17;10.47;;;5.40;;
52124;SDS011;38119;52.710;6.398;2023-05-20T01:18:47;11.30;;;5.70;;
52124;SDS011;38119;52.710;6.398;2023-05-20T01:21:13;11.50;;;5.65;;
52124;SDS011;38119;52.710;6.398;2023-05-20T01:23:41;9.88;;;4.80;;
52124;SDS011;38119;52.710;6.398;2023-05-20T01:26:07;12.25;;;5.82;;
52124;SDS011;38119;52.710;6.398;2023-05-20T01:28:34;13.43;;;5.18;;
52124;SDS011;38119;52.710;6.398;2023-05-20T01:31:03;10.60;;;5.43;;
52124;SDS011;38119;52.710;6.398;2023-05-20T01:33:30;12.13;;;5.32;;
52124;SDS011;38119;52.710;6.398;2023-05-20T01:35:59;12.05;;;5.65;;
52124;SDS011;38119;52.710;6.398;2023-05-20T01:38:25;11.15;;;5.75;;
52124;SDS011;38119;52.710;6.398;2023-05-20T01:40:52;9.07;;;5.03;;
52124;SDS011;38119;52.710;6.398;2023-05-20T01:43:19;14.18;;;5.70;;
52124;SDS011;38119;52.710;6.398;2023-05-20T01:45:45;12.90;;;5.68;;
52124;SDS011;38119;52.710;6.398;2023-05-20T01:48:11;13.45;;;5.40;;
52124;SDS011;38119;52.710;6.398;2023-05-20T01:50:37;15.68;;;5.80;;
52124;SDS011;38119;52.710;6.398;2023-05-20T01:53:03;9.15;;;5.13;;
52124;SDS011;38119;52.710;6.398;2023-05-20T01:55:30;12.95;;;5.65;;
52124;SDS011;38119;52.710;6.398;2023-05-20T01:57:55;13.43;;;5.57;;
52124;SDS011;38119;52.710;6.398;2023-05-20T02:00:21;12.32;;;5.15;;
52124;SDS011;38119;52.710;6.398;2023-05-20T02:02:47;10.07;;;5.20;;
52124;SDS011;38119;52.710;6.398;2023-05-20T02:05:12;9.38;;;5.45;;
52124;SDS011;38119;52.710;6.398;2023-05-20T02:07:38;8.35;;;4.90;;
52124;SDS011;38119;52.710;6.398;2023-05-20T02:10:04;8.77;;;4.85;;
52124;SDS011;38119;52.710;6.398;2023-05-20T02:12:30;9.60;;;4.82;;
52124;SDS011;38119;52.710;6.398;2023-05-20T02:14:56;10.63;;;5.05;;
52124;SDS011;38119;52.710;6.398;2023-05-20T02:17:21;12.68;;;5.38;;
52124;SDS011;38119;52.710;6.398;2023-05-20T02:19:47;10.90;;;5.25;;
52124;SDS011;38119;52.710;6.398;2023-05-20T02:22:13;13.40;;;5.70;;
52124;SDS011;38119;52.710;6.398;2023-05-20T02:24:39;7.72;;;4.60;;
52124;SDS011;38119;52.710;6.398;2023-05-20T02:27:05;9.63;;;5.07;;
52124;SDS011;38119;52.710;6.398;2023-05-20T02:29:31;12.32;;;5.40;;
52124;SDS011;38119;52.710;6.398;2023-05-20T02:31:57;12.05;;;4.90;;
52124;SDS011;38119;52.710;6.398;2023-05-20T02:34:22;12.68;;;5.32;;
52124;SDS011;38119;52.710;6.398;2023-05-20T02:36:49;12.15;;;5.07;;
52124;SDS011;38119;52.710;6.398;2023-05-20T02:39:15;13.50;;;5.15;;
52124;SDS011;38119;52.710;6.398;2023-05-20T02:41:41;11.23;;;5.15;;
52124;SDS011;38119;52.710;6.398;2023-05-20T02:44:07;8.80;;;4.60;;
52124;SDS011;38119;52.710;6.398;2023-05-20T02:46:32;12.13;;;5.40;;
52124;SDS011;38119;52.710;6.398;2023-05-20T02:48:58;9.80;;;5.05;;
52124;SDS011;38119;52.710;6.398;2023-05-20T02:51:24;9.75;;;4.93;;
52124;SDS011;38119;52.710;6.398;2023-05-20T02:53:49;14.18;;;5.05;;
52124;SDS011;38119;52.710;6.398;2023-05-20T02:56:15;10.00;;;4.90;;
52124;SDS011;38119;52.710;6.398;2023-05-20T02:58:45;11.40;;;5.03;;
52124;SDS011;38119;52.710;6.398;2023-05-20T03:01:11;8.45;;;4.50;;
52124;SDS011;38119;52.710;6.398;2023-05-20T03:03:36;9.02;;;4.70;;
52124;SDS011;38119;52.710;6.398;2023-05-20T03:06:02;9.85;;;4.53;;
52124;SDS011;38119;52.710;6.398;2023-05-20T03:08:27;9.02;;;4.40;;
52124;SDS011;38119;52.710;6.398;2023-05-20T03:10:53;7.72;;;4.45;;
52124;SDS011;38119;52.710;6.398;2023-05-20T03:13:19;10.95;;;4.53;;
52124;SDS011;38119;52.710;6.398;2023-05-20T03:15:45;9.25;;;4.65;;
52124;SDS011;38119;52.710;6.398;2023-05-20T03:18:11;9.52;;;4.88;;
52124;SDS011;38119;52.710;6.398;2023-05-20T03:20:37;9.05;;;4.00;;
52124;SDS011;38119;52.710;6.398;2023-05-20T03:23:04;10.68;;;4.70;;
52124;SDS011;38119;52.710;6.398;2023-05-20T03:25:30;8.60;;;4.43;;
52124;SDS011;38119;52.710;6.398;2023-05-20T03:27:56;6.93;;;4.05;;
52124;SDS011;38119;52.710;6.398;2023-05-20T03:30:27;9.82;;;4.70;;
52124;SDS011;38119;52.710;6.398;2023-05-20T03:32:53;8.98;;;4.35;;
52124;SDS011;38119;52.710;6.398;2023-05-20T03:35:20;9.20;;;4.10;;
52124;SDS011;38119;52.710;6.398;2023-05-20T03:37:45;12.82;;;4.40;;
52124;SDS011;38119;52.710;6.398;2023-05-20T03:40:11;8.80;;;4.28;;
52124;SDS011;38119;52.710;6.398;2023-05-20T03:42:37;11.05;;;4.57;;
52124;SDS011;38119;52.710;6.398;2023-05-20T03:45:03;11.40;;;4.78;;
52124;SDS011;38119;52.710;6.398;2023-05-20T03:47:29;8.05;;;4.40;;
52124;SDS011;38119;52.710;6.398;2023-05-20T03:49:54;8.10;;;4.38;;
52124;SDS011;38119;52.710;6.398;2023-05-20T03:52:20;7.38;;;4.47;;
52124;SDS011;38119;52.710;6.398;2023-05-20T03:54:46;7.97;;;4.40;;
52124;SDS011;38119;52.710;6.398;2023-05-20T03:57:12;6.97;;;3.72;;
52124;SDS011;38119;52.710;6.398;2023-05-20T03:59:38;8.20;;;3.90;;
52124;SDS011;38119;52.710;6.398;2023-05-20T04:02:04;7.35;;;4.03;;
52124;SDS011;38119;52.710;6.398;2023-05-20T04:04:30;9.88;;;4.43;;
52124;SDS011;38119;52.710;6.398;2023-05-20T04:06:57;8.18;;;4.28;;
52124;SDS011;38119;52.710;6.398;2023-05-20T04:09:24;10.98;;;3.83;;
52124;SDS011;38119;52.710;6.398;2023-05-20T04:11:50;7.00;;;3.90;;
52124;SDS011;38119;52.710;6.398;2023-05-20T04:14:16;11.02;;;4.43;;
52124;SDS011;38119;52.710;6.398;2023-05-20T04:16:42;7.50;;;4.03;;
52124;SDS011;38119;52.710;6.398;2023-05-20T04:19:09;8.35;;;4.03;;
52124;SDS011;38119;52.710;6.398;2023-05-20T04:21:35;8.13;;;4.35;;
52124;SDS011;38119;52.710;6.398;2023-05-20T04:24:01;7.47;;;3.88;;
52124;SDS011;38119;52.710;6.398;2023-05-20T04:26:27;8.57;;;4.07;;
52124;SDS011;38119;52.710;6.398;2023-05-20T04:28:53;9.43;;;4.32;;
52124;SDS011;38119;52.710;6.398;2023-05-20T04:31:19;8.02;;;3.67;;
52124;SDS011;38119;52.710;6.398;2023-05-20T04:33:51;7.63;;;3.78;;
52124;SDS011;38119;52.710;6.398;2023-05-20T04:36:17;9.38;;;3.80;;
52124;SDS011;38119;52.710;6.398;2023-05-20T04:38:42;10.55;;;3.90;;
52124;SDS011;38119;52.710;6.398;2023-05-20T04:41:08;7.28;;;3.63;;
52124;SDS011;38119;52.710;6.398;2023-05-20T04:43:34;7.85;;;3.80;;
52124;SDS011;38119;52.710;6.398;2023-05-20T04:46:02;10.88;;;4.35;;
52124;SDS011;38119;52.710;6.398;2023-05-20T04:48:29;8.55;;;4.20;;
52124;SDS011;38119;52.710;6.398;2023-05-20T04:50:56;8.93;;;3.72;;
52124;SDS011;38119;52.710;6.398;2023-05-20T04:53:22;7.80;;;3.88;;
52124;SDS011;38119;52.710;6.398;2023-05-20T04:55:47;6.22;;;3.75;;
52124;SDS011;38119;52.710;6.398;2023-05-20T04:58:20;7.03;;;3.70;;
52124;SDS011;38119;52.710;6.398;2023-05-20T05:00:48;6.07;;;3.35;;
52124;SDS011;38119;52.710;6.398;2023-05-20T05:03:15;6.57;;;3.50;;
52124;SDS011;38119;52.710;6.398;2023-05-20T05:05:41;6.47;;;3.60;;
52124;SDS011;38119;52.710;6.398;2023-05-20T05:08:07;6.40;;;3.50;;
52124;SDS011;38119;52.710;6.398;2023-05-20T05:10:35;7.07;;;3.30;;
52124;SDS011;38119;52.710;6.398;2023-05-20T05:13:01;7.80;;;3.33;;
52124;SDS011;38119;52.710;6.398;2023-05-20T05:15:26;6.63;;;3.40;;
52124;SDS011;38119;52.710;6.398;2023-05-20T05:17:53;5.97;;;3.33;;
52124;SDS011;38119;52.710;6.398;2023-05-20T05:20:18;7.78;;;3.50;;
52124;SDS011;38119;52.710;6.398;2023-05-20T05:22:44;6.28;;;3.42;;
52124;SDS011;38119;52.710;6.398;2023-05-20T05:25:10;7.60;;;3.13;;
52124;SDS011;38119;52.710;6.398;2023-05-20T05:27:36;7.07;;;3.30;;
52124;SDS011;38119;52.710;6.398;2023-05-20T05:30:03;7.57;;;3.42;;
52124;SDS011;38119;52.710;6.398;2023-05-20T05:32:30;6.32;;;2.90;;
52124;SDS011;38119;52.710;6.398;2023-05-20T05:34:56;6.60;;;3.40;;
52124;SDS011;38119;52.710;6.398;2023-05-20T05:37:22;5.90;;;2.97;;
52124;SDS011;38119;52.710;6.398;2023-05-20T05:39:47;8.50;;;3.25;;
52124;SDS011;38119;52.710;6.398;2023-05-20T05:42:13;8.73;;;3.15;;
52124;SDS011;38119;52.710;6.398;2023-05-20T05:44:39;5.90;;;2.97;;
52124;SDS011;38119;52.710;6.398;2023-05-20T05:47:05;10.70;;;3.10;;
52124;SDS011;38119;52.710;6.398;2023-05-20T05:49:31;6.25;;;2.97;;
52124;SDS011;38119;52.710;6.398;2023-05-20T05:51:57;5.55;;;2.97;;
52124;SDS011;38119;52.710;6.398;2023-05-20T05:54:22;8.65;;;3.00;;
52124;SDS011;38119;52.710;6.398;2023-05-20T05:56:50;4.68;;;2.72;;
52124;SDS011;38119;52.710;6.398;2023-05-20T05:59:16;6.85;;;2.92;;
52124;SDS011;38119;52.710;6.398;2023-05-20T06:01:41;7.05;;;2.95;;
52124;SDS011;38119;52.710;6.398;2023-05-20T06:04:07;5.57;;;2.65;;
52124;SDS011;38119;52.710;6.398;2023-05-20T06:06:33;5.82;;;2.63;;
52124;SDS011;38119;52.710;6.398;2023-05-20T06:08:58;6.07;;;2.80;;
52124;SDS011;38119;52.710;6.398;2023-05-20T06:11:24;7.80;;;3.03;;
52124;SDS011;38119;52.710;6.398;2023-05-20T06:13:50;6.18;;;2.70;;
52124;SDS011;38119;52.710;6.398;2023-05-20T06:16:16;4.95;;;2.70;;
52124;SDS011;38119;52.710;6.398;2023-05-20T06:18:41;4.70;;;2.70;;
52124;SDS011;38119;52.710;6.398;2023-05-20T06:21:07;4.85;;;2.50;;
52124;SDS011;38119;52.710;6.398;2023-05-20T06:23:33;10.15;;;3.10;;
52124;SDS011;38119;52.710;6.398;2023-05-20T06:25:59;6.47;;;2.92;;
52124;SDS011;38119;52.710;6.398;2023-05-20T06:28:25;3.92;;;2.40;;
52124;SDS011;38119;52.710;6.398;2023-05-20T06:30:53;5.22;;;3.00;;
52124;SDS011;38119;52.710;6.398;2023-05-20T06:33:19;4.35;;;2.63;;
52124;SDS011;38119;52.710;6.398;2023-05-20T06:35:50;5.25;;;3.03;;
52124;SDS011;38119;52.710;6.398;2023-05-20T06:38:16;5.88;;;2.25;;
52124;SDS011;38119;52.710;6.398;2023-05-20T06:40:42;5.13;;;2.55;;
52124;SDS011;38119;52.710;6.398;2023-05-20T06:43:08;5.47;;;2.53;;
52124;SDS011;38119;52.710;6.398;2023-05-20T06:45:33;5.32;;;2.47;;
52124;SDS011;38119;52.710;6.398;2023-05-20T06:47:59;4.95;;;2.97;;
52124;SDS011;38119;52.710;6.398;2023-05-20T06:50:25;6.68;;;2.95;;
52124;SDS011;38119;52.710;6.398;2023-05-20T06:52:52;4.47;;;2.33;;
52124;SDS011;38119;52.710;6.398;2023-05-20T06:55:18;5.32;;;2.80;;
52124;SDS011;38119;52.710;6.398;2023-05-20T06:57:43;5.90;;;2.70;;
52124;SDS011;38119;52.710;6.398;2023-05-20T07:00:09;5.43;;;2.60;;
52124;SDS011;38119;52.710;6.398;2023-05-20T07:02:37;5.93;;;2.60;;
52124;SDS011;38119;52.710;6.398;2023-05-20T07:05:04;5.18;;;2.72;;
52124;SDS011;38119;52.710;6.398;2023-05-20T07:07:29;4.93;;;2.80;;
52124;SDS011;38119;52.710;6.398;2023-05-20T07:09:56;5.93;;;2.55;;
52124;SDS011;38119;52.710;6.398;2023-05-20T07:12:21;6.70;;;2.80;;
52124;SDS011;38119;52.710;6.398;2023-05-20T07:14:47;6.45;;;2.80;;
52124;SDS011;38119;52.710;6.398;2023-05-20T07:17:13;7.35;;;2.67;;
52124;SDS011;38119;52.710;6.398;2023-05-20T07:19:38;6.13;;;2.70;;
52124;SDS011;38119;52.710;6.398;2023-05-20T07:22:04;6.70;;;2.80;;
52124;SDS011;38119;52.710;6.398;2023-05-20T07:24:30;4.40;;;2.65;;
52124;SDS011;38119;52.710;6.398;2023-05-20T07:26:56;4.90;;;2.78;;
52124;SDS011;38119;52.710;6.398;2023-05-20T07:29:21;6.70;;;2.80;;
52124;SDS011;38119;52.710;6.398;2023-05-20T07:31:47;7.68;;;2.70;;
52124;SDS011;38119;52.710;6.398;2023-05-20T07:34:12;6.05;;;2.90;;
52124;SDS011;38119;52.710;6.398;2023-05-20T07:36:38;6.70;;;3.10;;
52124;SDS011;38119;52.710;6.398;2023-05-20T07:39:04;5.13;;;2.50;;
52124;SDS011;38119;52.710;6.398;2023-05-20T07:41:29;6.70;;;3.75;;
52124;SDS011;38119;52.710;6.398;2023-05-20T07:43:55;4.68;;;3.05;;
52124;SDS011;38119;52.710;6.398;2023-05-20T07:46:21;6.93;;;2.92;;
52124;SDS011;38119;52.710;6.398;2023-05-20T07:48:46;5.35;;;2.70;;
52124;SDS011;38119;52.710;6.398;2023-05-20T07:51:12;7.85;;;2.80;;
52124;SDS011;38119;52.710;6.398;2023-05-20T07:53:38;7.00;;;2.80;;
52124;SDS011;38119;52.710;6.398;2023-05-20T07:56:03;6.32;;;3.08;;
52124;SDS011;38119;52.710;6.398;2023-05-20T07:58:30;6.95;;;3.10;;
52124;SDS011;38119;52.710;6.398;2023-05-20T08:00:56;7.05;;;3.05;;
52124;SDS011;38119;52.710;6.398;2023-05-20T08:03:22;5.80;;;2.90;;
52124;SDS011;38119;52.710;6.398;2023-05-20T08:05:47;8.13;;;2.95;;
52124;SDS011;38119;52.710;6.398;2023-05-20T08:08:13;5.40;;;3.00;;
52124;SDS011;38119;52.710;6.398;2023-05-20T08:10:40;6.18;;;2.85;;
52124;SDS011;38119;52.710;6.398;2023-05-20T08:13:05;6.38;;;2.90;;
52124;SDS011;38119;52.710;6.398;2023-05-20T08:15:31;9.68;;;3.20;;
52124;SDS011;38119;52.710;6.398;2023-05-20T08:17:57;6.25;;;2.70;;
52124;SDS011;38119;52.710;6.398;2023-05-20T08:20:22;4.93;;;2.90;;
52124;SDS011;38119;52.710;6.398;2023-05-20T08:22:50;5.38;;;3.00;;
52124;SDS011;38119;52.710;6.398;2023-05-20T08:25:16;4.72;;;2.83;;
52124;SDS011;38119;52.710;6.398;2023-05-20T08:27:42;5.90;;;2.90;;
52124;SDS011;38119;52.710;6.398;2023-05-20T08:30:08;7.53;;;2.50;;
52124;SDS011;38119;52.710;6.398;2023-05-20T08:32:35;5.40;;;2.90;;
52124;SDS011;38119;52.710;6.398;2023-05-20T08:35:01;5.55;;;2.78;;
52124;SDS011;38119;52.710;6.398;2023-05-20T08:37:28;5.25;;;2.80;;
52124;SDS011;38119;52.710;6.398;2023-05-20T08:39:54;7.00;;;2.65;;
52124;SDS011;38119;52.710;6.398;2023-05-20T08:42:22;4.78;;;2.70;;
52124;SDS011;38119;52.710;6.398;2023-05-20T08:44:49;5.00;;;2.85;;
52124;SDS011;38119;52.710;6.398;2023-05-20T08:47:19;4.43;;;2.60;;
52124;SDS011;38119;52.710;6.398;2023-05-20T08:49:46;7.93;;;2.95;;
52124;SDS011;38119;52.710;6.398;2023-05-20T08:52:15;5.57;;;2.70;;
52124;SDS011;38119;52.710;6.398;2023-05-20T08:54:45;4.93;;;2.80;;
52124;SDS011;38119;52.710;6.398;2023-05-20T08:57:13;5.32;;;2.67;;
52124;SDS011;38119;52.710;6.398;2023-05-20T08:59:42;5.93;;;2.40;;
52124;SDS011;38119;52.710;6.398;2023-05-20T09:02:09;6.68;;;2.40;;
52124;SDS011;38119;52.710;6.398;2023-05-20T09:04:35;6.78;;;2.35;;
52124;SDS011;38119;52.710;6.398;2023-05-20T09:07:02;5.68;;;2.53;;
52124;SDS011;38119;52.710;6.398;2023-05-20T09:09:28;9.68;;;2.60;;
52124;SDS011;38119;52.710;6.398;2023-05-20T09:11:55;6.72;;;2.40;;
52124;SDS011;38119;52.710;6.398;2023-05-20T09:14:20;3.90;;;2.40;;
52124;SDS011;38119;52.710;6.398;2023-05-20T09:16:47;6.55;;;2.47;;
52124;SDS011;38119;52.710;6.398;2023-05-20T09:19:13;5.72;;;2.22;;
52124;SDS011;38119;52.710;6.398;2023-05-20T09:21:39;5.00;;;2.20;;
52124;SDS011;38119;52.710;6.398;2023-05-20T09:24:06;4.13;;;2.50;;
52124;SDS011;38119;52.710;6.398;2023-05-20T09:26:31;3.40;;;2.33;;
52124;SDS011;38119;52.710;6.398;2023-05-20T09:28:58;6.47;;;2.42;;
52124;SDS011;38119;52.710;6.398;2023-05-20T09:31:30;3.90;;;2.00;;
52124;SDS011;38119;52.710;6.398;2023-05-20T09:33:58;7.63;;;2.20;;
52124;SDS011;38119;52.710;6.398;2023-05-20T09:36:25;3.80;;;2.03;;
52124;SDS011;38119;52.710;6.398;2023-05-20T09:38:53;3.40;;;2.00;;
52124;SDS011;38119;52.710;6.398;2023-05-20T09:41:24;5.75;;;2.30;;
52124;SDS011;38119;52.710;6.398;2023-05-20T09:43:58;5.03;;;2.20;;
52124;SDS011;38119;52.710;6.398;2023-05-20T09:46:24;4.90;;;1.90;;
52124;SDS011;38119;52.710;6.398;2023-05-20T09:48:51;5.15;;;2.20;;
52124;SDS011;38119;52.710;6.398;2023-05-20T09:51:18;7.32;;;2.15;;
52124;SDS011;38119;52.710;6.398;2023-05-20T09:53:45;7.80;;;2.20;;
52124;SDS011;38119;52.710;6.398;2023-05-20T09:56:11;6.00;;;2.00;;
52124;SDS011;38119;52.710;6.398;2023-05-20T09:58:37;3.72;;;2.15;;
52124;SDS011;38119;52.710;6.398;2023-05-20T10:01:04;7.15;;;2.40;;
52124;SDS011;38119;52.710;6.398;2023-05-20T10:03:31;6.95;;;2.42;;
52124;SDS011;38119;52.710;6.398;2023-05-20T10:06:12;6.13;;;2.30;;
52124;SDS011;38119;52.710;6.398;2023-05-20T10:19:32;6.38;;;2.30;;
52124;SDS011;38119;52.710;6.398;2023-05-20T10:25:03;6.32;;;2.45;;
52124;SDS011;38119;52.710;6.398;2023-05-20T10:27:40;7.82;;;2.28;;
52124;SDS011;38119;52.710;6.398;2023-05-20T10:30:19;5.13;;;2.20;;
52124;SDS011;38119;52.710;6.398;2023-05-20T10:32:53;6.28;;;2.30;;
52124;SDS011;38119;52.710;6.398;2023-05-20T10:35:24;4.22;;;2.08;;
52124;SDS011;38119;52.710;6.398;2023-05-20T10:37:51;10.23;;;2.55;;
52124;SDS011;38119;52.710;6.398;2023-05-20T10:40:19;5.72;;;2.28;;
52124;SDS011;38119;52.710;6.398;2023-05-20T10:42:45;4.78;;;2.30;;
52124;SDS011;38119;52.710;6.398;2023-05-20T10:45:23;6.55;;;2.15;;
52124;SDS011;38119;52.710;6.398;2023-05-20T10:47:56;3.78;;;1.90;;
52124;SDS011;38119;52.710;6.398;2023-05-20T10:50:33;6.47;;;2.03;;
52124;SDS011;38119;52.710;6.398;2023-05-20T10:53:10;5.60;;;2.13;;
52124;SDS011;38119;52.710;6.398;2023-05-20T10:55:37;4.88;;;2.20;;
52124;SDS011;38119;52.710;6.398;2023-05-20T10:58:04;5.63;;;2.25;;
52124;SDS011;38119;52.710;6.398;2023-05-20T11:00:34;3.67;;;2.05;;
52124;SDS011;38119;52.710;6.398;2023-05-20T11:03:03;4.57;;;2.10;;
52124;SDS011;38119;52.710;6.398;2023-05-20T11:05:30;8.55;;;2.10;;
52124;SDS011;38119;52.710;6.398;2023-05-20T11:08:00;6.60;;;2.22;;
52124;SDS011;38119;52.710;6.398;2023-05-20T11:10:32;7.63;;;2.13;;
52124;SDS011;38119;52.710;6.398;2023-05-20T11:12:59;3.10;;;2.10;;
52124;SDS011;38119;52.710;6.398;2023-05-20T11:15:26;3.00;;;1.80;;
52124;SDS011;38119;52.710;6.398;2023-05-20T11:17:53;8.15;;;2.17;;
52124;SDS011;38119;52.710;6.398;2023-05-20T11:20:20;5.13;;;2.40;;
52124;SDS011;38119;52.710;6.398;2023-05-20T11:22:48;3.75;;;2.20;;
52124;SDS011;38119;52.710;6.398;2023-05-20T11:25:17;6.90;;;1.98;;
52124;SDS011;38119;52.710;6.398;2023-05-20T11:27:50;4.00;;;2.00;;
52124;SDS011;38119;52.710;6.398;2023-05-20T11:30:16;5.47;;;2.30;;
52124;SDS011;38119;52.710;6.398;2023-05-20T11:32:57;4.63;;;2.20;;
52124;SDS011;38119;52.710;6.398;2023-05-20T11:35:24;3.67;;;2.17;;
52124;SDS011;38119;52.710;6.398;2023-05-20T11:38:02;8.05;;;2.00;;
52124;SDS011;38119;52.710;6.398;2023-05-20T11:40:30;5.50;;;2.08;;
52124;SDS011;38119;52.710;6.398;2023-05-20T11:42:58;4.00;;;1.95;;
52124;SDS011;38119;52.710;6.398;2023-05-20T11:45:24;4.32;;;2.00;;
52124;SDS011;38119;52.710;6.398;2023-05-20T11:48:24;2.20;;;1.90;;
52124;SDS011;38119;52.710;6.398;2023-05-20T11:50:44;3.47;;;1.92;;
52124;SDS011;38119;52.710;6.398;2023-05-20T11:53:18;2.50;;;1.73;;
52124;SDS011;38119;52.710;6.398;2023-05-20T11:58:26;3.88;;;1.98;;
52124;SDS011;38119;52.710;6.398;2023-05-20T12:03:20;6.13;;;2.00;;
52124;SDS011;38119;52.710;6.398;2023-05-20T12:05:46;3.53;;;2.08;;
52124;SDS011;38119;52.710;6.398;2023-05-20T12:08:12;5.85;;;2.20;;
52124;SDS011;38119;52.710;6.398;2023-05-20T12:10:38;7.10;;;2.17;;
52124;SDS011;38119;52.710;6.398;2023-05-20T12:13:04;5.68;;;2.00;;
52124;SDS011;38119;52.710;6.398;2023-05-20T12:15:33;3.03;;;1.98;;
52124;SDS011;38119;52.710;6.398;2023-05-20T12:18:00;12.75;;;2.10;;
52124;SDS011;38119;52.710;6.398;2023-05-20T12:20:25;3.45;;;2.38;;
52124;SDS011;38119;52.710;6.398;2023-05-20T12:22:51;4.75;;;1.90;;
52124;SDS011;38119;52.710;6.398;2023-05-20T12:25:17;3.28;;;1.92;;
52124;SDS011;38119;52.710;6.398;2023-05-20T12:27:46;3.67;;;2.00;;
52124;SDS011;38119;52.710;6.398;2023-05-20T12:30:16;3.53;;;2.08;;
52124;SDS011;38119;52.710;6.398;2023-05-20T12:32:43;3.75;;;1.92;;
52124;SDS011;38119;52.710;6.398;2023-05-20T12:35:10;4.38;;;1.98;;
52124;SDS011;38119;52.710;6.398;2023-05-20T12:37:39;5.15;;;1.90;;
52124;SDS011;38119;52.710;6.398;2023-05-20T12:40:06;4.47;;;2.20;;
52124;SDS011;38119;52.710;6.398;2023-05-20T12:42:36;3.33;;;1.80;;
52124;SDS011;38119;52.710;6.398;2023-05-20T12:45:05;4.43;;;2.20;;
52124;SDS011;38119;52.710;6.398;2023-05-20T12:47:32;3.33;;;1.83;;
52124;SDS011;38119;52.710;6.398;2023-05-20T12:49:58;2.72;;;1.95;;
52124;SDS011;38119;52.710;6.398;2023-05-20T12:52:24;5.00;;;2.08;;
52124;SDS011;38119;52.710;6.398;2023-05-20T12:54:50;6.65;;;2.20;;
52124;SDS011;38119;52.710;6.398;2023-05-20T12:57:17;9.93;;;2.35;;
52124;SDS011;38119;52.710;6.398;2023-05-20T12:59:43;4.22;;;2.00;;
52124;SDS011;38119;52.710;6.398;2023-05-20T13:02:09;4.45;;;1.90;;
52124;SDS011;38119;52.710;6.398;2023-05-20T13:04:35;3.97;;;2.28;;
52124;SDS011;38119;52.710;6.398;2023-05-20T13:07:00;4.28;;;1.98;;
52124;SDS011;38119;52.710;6.398;2023-05-20T13:09:27;3.28;;;1.92;;
52124;SDS011;38119;52.710;6.398;2023-05-20T13:11:52;3.75;;;2.20;;
52124;SDS011;38119;52.710;6.398;2023-05-20T13:14:18;3.97;;;1.80;;
52124;SDS011;38119;52.710;6.398;2023-05-20T13:16:43;4.40;;;1.98;;
52124;SDS011;38119;52.710;6.398;2023-05-20T13:19:09;5.60;;;2.10;;
52124;SDS011;38119;52.710;6.398;2023-05-20T13:21:35;4.95;;;2.05;;
52124;SDS011;38119;52.710;6.398;2023-05-20T13:24:01;6.65;;;2.03;;
52124;SDS011;38119;52.710;6.398;2023-05-20T13:26:28;8.02;;;2.17;;
52124;SDS011;38119;52.710;6.398;2023-05-20T13:28:53;3.38;;;2.20;;
52124;SDS011;38119;52.710;6.398;2023-05-20T13:31:19;4.80;;;2.00;;
52124;SDS011;38119;52.710;6.398;2023-05-20T13:33:45;4.90;;;1.95;;
52124;SDS011;38119;52.710;6.398;2023-05-20T13:36:11;6.07;;;2.00;;
52124;SDS011;38119;52.710;6.398;2023-05-20T13:38:37;5.95;;;2.50;;
52124;SDS011;38119;52.710;6.398;2023-05-20T13:41:02;8.80;;;2.15;;
52124;SDS011;38119;52.710;6.398;2023-05-20T13:43:29;5.90;;;2.15;;
52124;SDS011;38119;52.710;6.398;2023-05-20T13:45:55;4.35;;;1.88;;
52124;SDS011;38119;52.710;6.398;2023-05-20T13:48:21;6.53;;;2.13;;
52124;SDS011;38119;52.710;6.398;2023-05-20T13:50:47;6.38;;;2.22;;
52124;SDS011;38119;52.710;6.398;2023-05-20T13:53:12;6.50;;;2.15;;
52124;SDS011;38119;52.710;6.398;2023-05-20T13:55:38;3.30;;;2.00;;
52124;SDS011;38119;52.710;6.398;2023-05-20T13:58:05;5.20;;;1.90;;
52124;SDS011;38119;52.710;6.398;2023-05-20T14:00:36;6.85;;;2.42;;
52124;SDS011;38119;52.710;6.398;2023-05-20T14:03:02;7.80;;;2.00;;
52124;SDS011;38119;52.710;6.398;2023-05-20T14:05:32;6.13;;;2.00;;
52124;SDS011;38119;52.710;6.398;2023-05-20T14:07:58;3.28;;;2.00;;
52124;SDS011;38119;52.710;6.398;2023-05-20T14:10:24;3.75;;;1.92;;
52124;SDS011;38119;52.710;6.398;2023-05-20T14:12:51;3.97;;;2.17;;
52124;SDS011;38119;52.710;6.398;2023-05-20T14:15:16;3.03;;;2.00;;
52124;SDS011;38119;52.710;6.398;2023-05-20T14:17:42;3.88;;;1.90;;
52124;SDS011;38119;52.710;6.398;2023-05-20T14:20:08;4.88;;;2.03;;
52124;SDS011;38119;52.710;6.398;2023-05-20T14:22:34;3.88;;;1.70;;
52124;SDS011;38119;52.710;6.398;2023-05-20T14:25:00;6.10;;;1.70;;
52124;SDS011;38119;52.710;6.398;2023-05-20T14:27:25;4.03;;;1.92;;
52124;SDS011;38119;52.710;6.398;2023-05-20T14:29:51;4.20;;;1.90;;
52124;SDS011;38119;52.710;6.398;2023-05-20T14:32:17;3.70;;;2.05;;
52124;SDS011;38119;52.710;6.398;2023-05-20T14:34:42;5.63;;;1.90;;
52124;SDS011;38119;52.710;6.398;2023-05-20T14:37:08;5.55;;;1.92;;
52124;SDS011;38119;52.710;6.398;2023-05-20T14:39:35;5.55;;;1.88;;
52124;SDS011;38119;52.710;6.398;2023-05-20T14:42:01;2.55;;;1.67;;
52124;SDS011;38119;52.710;6.398;2023-05-20T14:44:27;4.32;;;1.90;;
52124;SDS011;38119;52.710;6.398;2023-05-20T14:46:53;6.25;;;1.80;;
52124;SDS011;38119;52.710;6.398;2023-05-20T14:49:19;2.40;;;1.70;;
52124;SDS011;38119;52.710;6.398;2023-05-20T14:51:44;5.97;;;1.95;;
52124;SDS011;38119;52.710;6.398;2023-05-20T14:54:10;5.57;;;1.90;;
52124;SDS011;38119;52.710;6.398;2023-05-20T14:56:36;3.30;;;1.88;;
52124;SDS011;38119;52.710;6.398;2023-05-20T14:59:02;5.03;;;2.10;;
52124;SDS011;38119;52.710;6.398;2023-05-20T15:01:27;3.65;;;2.10;;